createdAt,value
2022-10-21T00:00:10.027Z,99170.83
2022-10-21T00:01:34.943Z,99172.67
2022-10-21T00:02:37.047Z,99172.88
2022-10-21T00:03:40.045Z,99172.55
2022-10-21T00:04:42.253Z,99169.98
2022-10-21T00:05:44.025Z,99172.72
2022-10-21T00:06:46.975Z,99176.13
2022-10-21T00:07:48.619Z,99179.48
2022-10-21T00:08:50.467Z,99178.75
2022-10-21T00:09:52.141Z,99175.67
2022-10-21T00:10:56.053Z,99173.02
2022-10-21T00:11:57.855Z,99167.83
2022-10-21T00:12:59.537Z,99170.33
2022-10-21T00:14:01.171Z,99171.06
2022-10-21T00:15:05.867Z,99169.10
2022-10-21T00:16:14.918Z,99166.18
2022-10-21T00:17:16.590Z,99165.20
2022-10-21T00:18:18.235Z,99163.73
2022-10-21T00:19:19.867Z,99161.23
2022-10-21T00:21:28.149Z,99159.63
2022-10-21T00:22:29.799Z,99157.46
2022-10-21T00:23:31.537Z,99158.44
2022-10-21T00:24:33.392Z,99159.58
2022-10-21T00:25:34.999Z,99161.25
2022-10-21T00:26:38.464Z,99158.39
2022-10-21T00:27:40.608Z,99158.36
2022-10-21T00:28:42.710Z,99158.48
2022-10-21T00:29:44.381Z,99154.50
2022-10-21T00:30:46.680Z,99155.60
2022-10-21T00:31:48.395Z,99150.65
2022-10-21T00:32:50.201Z,99150.70
2022-10-21T00:33:52.623Z,99147.11
2022-10-21T00:34:54.246Z,99147.27
2022-10-21T00:35:58.983Z,99145.55
2022-10-21T00:37:00.881Z,99141.12
2022-10-21T00:38:02.540Z,99138.91
2022-10-21T00:39:04.232Z,99135.39
2022-10-21T00:40:06.832Z,99135.80
2022-10-21T00:41:08.642Z,99131.74
2022-10-21T00:42:18.127Z,99127.84
2022-10-21T00:43:20.053Z,99128.09
2022-10-21T00:44:21.717Z,99122.30
2022-10-21T00:45:27.999Z,99121.90
2022-10-21T00:46:39.936Z,99116.28
2022-10-21T00:47:49.428Z,99114.67
2022-10-21T00:48:59.405Z,99110.45
2022-10-21T00:50:04.575Z,99108.08
2022-10-21T00:51:14.644Z,99104.91
2022-10-21T00:52:22.306Z,99103.94
2022-10-21T00:53:25.847Z,99096.72
2022-10-21T00:54:31.354Z,99100.57
2022-10-21T00:55:37.330Z,99096.56
2022-10-21T00:56:44.527Z,99097.05
2022-10-21T00:57:46.632Z,99099.55
2022-10-21T00:58:49.135Z,99099.17
2022-10-21T00:59:57.795Z,99099.59
2022-10-21T01:01:02.596Z,99094.70
2022-10-21T01:02:05.551Z,99093.92
2022-10-21T01:03:07.359Z,99091.75
2022-10-21T01:04:09.035Z,99092.36
2022-10-21T01:05:12.782Z,99092.28
2022-10-21T01:06:16.903Z,99090.45
2022-10-21T01:07:18.762Z,99090.28
2022-10-21T01:08:20.874Z,99084.73
2022-10-21T01:09:23.906Z,99085.88
2022-10-21T01:10:25.629Z,99086.30
2022-10-21T01:11:30.226Z,99086.54
2022-10-21T01:12:50.117Z,99080.84
2022-10-21T01:14:06.362Z,99081.02
2022-10-21T01:15:25.397Z,99076.58
2022-10-21T01:16:48.522Z,99078.88
2022-10-21T01:18:11.545Z,99077.16
2022-10-21T01:19:54.294Z,99080.64
2022-10-21T01:21:08.426Z,99084.44
2022-10-21T01:22:15.724Z,99086.08
2022-10-21T01:23:51.095Z,99086.50
2022-10-21T01:25:15.758Z,99082.80
2022-10-21T01:26:51.346Z,99075.88
2022-10-21T01:28:18.759Z,99077.76
2022-10-21T01:30:06.231Z,99080.02
2022-10-21T01:31:33.085Z,99077.31
2022-10-21T01:32:52.918Z,99072.12
2022-10-21T01:34:09.528Z,99066.58
2022-10-21T01:35:16.926Z,99069.38
2022-10-21T01:36:42.091Z,99073.88
2022-10-21T01:38:02.926Z,99075.23
2022-10-21T01:39:29.079Z,99072.45
2022-10-21T01:40:53.588Z,99073.27
2022-10-21T01:42:01.405Z,99072.93
2022-10-21T01:43:22.606Z,99069.86
2022-10-21T01:45:05.209Z,99065.35
2022-10-21T01:46:15.347Z,99063.95
2022-10-21T01:47:29.044Z,99059.07
2022-10-21T01:48:41.857Z,99061.04
2022-10-21T01:49:56.215Z,99062.35
2022-10-21T01:51:05.700Z,99062.36
2022-10-21T01:52:08.705Z,99063.73
2022-10-21T01:53:15.173Z,99064.85
2022-10-21T01:54:25.319Z,99063.13
2022-10-21T01:55:32.360Z,99063.54
2022-10-21T01:56:37.425Z,99062.60
2022-10-21T01:57:49.292Z,99061.98
2022-10-21T01:58:53.395Z,99057.48
2022-10-21T02:00:00.133Z,99058.30
2022-10-21T02:01:06.539Z,99057.84
2022-10-21T02:02:10.958Z,99057.08
2022-10-21T02:03:19.601Z,99054.36
2022-10-21T02:04:23.716Z,99053.50
2022-10-21T02:05:32.169Z,99048.55
2022-10-21T02:06:34.630Z,99046.53
2022-10-21T02:07:36.656Z,99043.79
2022-10-21T02:08:38.790Z,99040.84
2022-10-21T02:09:40.462Z,99042.61
2022-10-21T02:10:47.908Z,99044.04
2022-10-21T02:11:55.034Z,99043.42
2022-10-21T02:13:01.159Z,99038.67
2022-10-21T02:14:15.413Z,99037.73
2022-10-21T02:15:20.036Z,99036.42
2022-10-21T02:16:28.023Z,99034.98
2022-10-21T02:17:30.001Z,99033.10
2022-10-21T02:18:31.658Z,99033.51
2022-10-21T02:19:33.472Z,99027.66
2022-10-21T02:20:42.192Z,99025.16
2022-10-21T02:21:47.457Z,99023.20
2022-10-21T02:22:50.235Z,99022.85
2022-10-21T02:23:55.528Z,99023.27
2022-10-21T02:25:22.031Z,99026.96
2022-10-21T02:26:27.930Z,99023.16
2022-10-21T02:27:29.635Z,99023.48
2022-10-21T02:28:33.400Z,99025.66
2022-10-21T02:29:42.821Z,99026.11
2022-10-21T02:30:55.010Z,99020.90
2022-10-21T02:32:18.713Z,99018.44
2022-10-21T02:33:34.416Z,99016.80
2022-10-21T02:34:57.736Z,99021.09
2022-10-21T02:36:37.931Z,99017.33
2022-10-21T02:38:00.560Z,99010.66
2022-10-21T02:39:12.273Z,99008.81
2022-10-21T02:40:32.659Z,99007.94
2022-10-21T02:41:38.896Z,99002.29
2022-10-21T02:42:53.974Z,98997.79
2022-10-21T02:44:01.426Z,98997.25
2022-10-21T02:45:04.413Z,99001.30
2022-10-21T02:46:09.711Z,99006.35
2022-10-21T02:48:17.951Z,99011.78
2022-10-21T02:49:19.648Z,99009.65
2022-10-21T02:50:21.443Z,99012.23
2022-10-21T02:51:23.102Z,99009.63
2022-10-21T02:52:24.695Z,99006.82
2022-10-21T02:53:26.451Z,99002.65
2022-10-21T02:54:28.069Z,99000.23
2022-10-21T02:55:30.076Z,99000.40
2022-10-21T02:56:31.849Z,99001.33
2022-10-21T02:57:33.541Z,98995.80
2022-10-21T02:58:35.413Z,98998.67
2022-10-21T02:59:37.048Z,99001.50
2022-10-21T03:00:38.757Z,99001.08
2022-10-21T03:01:40.446Z,98998.46
2022-10-21T03:02:42.212Z,98998.17
2022-10-21T03:03:43.896Z,98996.63
2022-10-21T03:04:45.532Z,98996.01
2022-10-21T03:05:47.488Z,98996.77
2022-10-21T03:06:49.088Z,98996.13
2022-10-21T03:07:50.692Z,98992.69
2022-10-21T03:08:52.642Z,98988.36
2022-10-21T03:09:54.328Z,98984.29
2022-10-21T03:10:56.011Z,98982.09
2022-10-21T03:11:57.715Z,98982.77
2022-10-21T03:12:59.330Z,98984.01
2022-10-21T03:14:00.976Z,98983.52
2022-10-21T03:15:04.076Z,98984.98
2022-10-21T03:16:06.150Z,98980.48
2022-10-21T03:17:07.788Z,98978.39
2022-10-21T03:18:09.449Z,98978.52
2022-10-21T03:19:11.296Z,98979.91
2022-10-21T03:20:13.096Z,98977.25
2022-10-21T03:21:14.723Z,98977.46
2022-10-21T03:22:16.356Z,98975.73
2022-10-21T03:23:19.505Z,98977.79
2022-10-21T03:24:28.428Z,98978.73
2022-10-21T03:25:35.084Z,98980.33
2022-10-21T03:26:37.292Z,98981.34
2022-10-21T03:27:39.781Z,98980.08
2022-10-21T03:28:41.447Z,98979.63
2022-10-21T03:29:43.125Z,98970.39
2022-10-21T03:30:44.835Z,98963.96
2022-10-21T03:31:46.447Z,98959.73
2022-10-21T03:32:48.087Z,98959.50
2022-10-21T03:33:49.720Z,98964.90
2022-10-21T03:34:51.517Z,98965.39
2022-10-21T03:35:53.209Z,98964.41
2022-10-21T03:36:54.868Z,98962.23
2022-10-21T03:38:59.098Z,98960.23
2022-10-21T03:40:00.843Z,98960.76
2022-10-21T03:41:02.550Z,98955.06
2022-10-21T03:42:04.231Z,98952.25
2022-10-21T03:43:05.953Z,98952.40
2022-10-21T03:44:07.741Z,98947.13
2022-10-21T03:45:10.015Z,98947.52
2022-10-21T03:46:11.640Z,98941.30
2022-10-21T03:47:13.334Z,98943.36
2022-10-21T03:48:14.954Z,98935.55
2022-10-21T03:49:21.089Z,98937.10
2022-10-21T03:50:26.595Z,98936.15
2022-10-21T03:51:28.545Z,98935.95
2022-10-21T03:52:30.204Z,98933.66
2022-10-21T03:53:42.829Z,98936.73
2022-10-21T03:54:45.102Z,98932.68
2022-10-21T03:55:46.812Z,98935.95
2022-10-21T03:56:48.443Z,98934.27
2022-10-21T03:57:50.084Z,98933.86
2022-10-21T03:58:55.110Z,98929.15
2022-10-21T04:00:00.188Z,98922.42
2022-10-21T04:01:02.094Z,98919.16
2022-10-21T04:02:04.009Z,98919.83
2022-10-21T04:03:05.687Z,98923.67
2022-10-21T04:04:07.402Z,98923.86
2022-10-21T04:05:10.442Z,98925.27
2022-10-21T04:06:12.295Z,98924.03
2022-10-21T04:07:13.928Z,98922.80
2022-10-21T04:08:15.600Z,98922.55
2022-10-21T04:09:17.549Z,98919.77
2022-10-21T04:10:19.331Z,98920.80
2022-10-21T04:11:21.135Z,98919.81
2022-10-21T04:12:23.029Z,98918.48
2022-10-21T04:13:24.728Z,98920.67
2022-10-21T04:14:26.371Z,98916.95
2022-10-21T04:15:28.068Z,98921.85
2022-10-21T04:16:30.048Z,98919.33
2022-10-21T04:17:31.720Z,98920.75
2022-10-21T04:18:34.344Z,98915.88
2022-10-21T04:19:36.008Z,98916.41
2022-10-21T04:20:37.668Z,98913.76
2022-10-21T04:21:39.397Z,98914.09
2022-10-21T04:22:41.186Z,98912.45
2022-10-21T04:23:43.402Z,98917.36
2022-10-21T04:24:45.069Z,98917.60
2022-10-21T04:25:48.144Z,98914.45
2022-10-21T04:26:49.839Z,98914.33
2022-10-21T04:27:51.479Z,98911.34
2022-10-21T04:28:53.092Z,98907.85
2022-10-21T04:29:54.699Z,98908.72
2022-10-21T04:30:56.511Z,98910.27
2022-10-21T04:31:58.249Z,98906.88
2022-10-21T04:33:00.046Z,98907.87
2022-10-21T04:34:01.813Z,98904.78
2022-10-21T04:35:03.666Z,98903.77
2022-10-21T04:36:05.806Z,98904.42
2022-10-21T04:37:07.531Z,98900.27
2022-10-21T04:38:09.144Z,98898.66
2022-10-21T04:39:10.894Z,98902.46
2022-10-21T04:40:12.606Z,98899.55
2022-10-21T04:41:14.244Z,98897.52
2022-10-21T04:42:15.948Z,98894.14
2022-10-21T04:43:17.634Z,98893.32
2022-10-21T04:44:19.255Z,98894.44
2022-10-21T04:45:20.874Z,98894.60
2022-10-21T04:46:22.512Z,98895.30
2022-10-21T04:47:24.208Z,98889.92
2022-10-21T04:48:25.834Z,98887.48
2022-10-21T04:49:27.472Z,98886.81
2022-10-21T04:50:29.201Z,98887.55
2022-10-21T04:51:35.627Z,98887.64
2022-10-21T04:52:39.080Z,98886.38
2022-10-21T04:53:40.946Z,98881.58
2022-10-21T04:54:42.606Z,98879.25
2022-10-21T04:55:44.826Z,98875.61
2022-10-21T04:56:46.685Z,98874.17
2022-10-21T04:57:48.356Z,98878.52
2022-10-21T04:58:49.983Z,98873.64
2022-10-21T04:59:51.663Z,98876.55
2022-10-21T05:00:53.381Z,98874.86
2022-10-21T05:01:55.573Z,98880.52
2022-10-21T05:02:57.473Z,98878.71
2022-10-21T05:03:59.265Z,98881.86
2022-10-21T05:05:00.930Z,98881.16
2022-10-21T05:06:02.662Z,98879.90
2022-10-21T05:07:04.379Z,98877.23
2022-10-21T05:08:11.387Z,98879.27
2022-10-21T05:09:13.711Z,98879.78
2022-10-21T05:10:15.772Z,98881.91
2022-10-21T05:11:17.499Z,98880.67
2022-10-21T05:12:19.228Z,98877.73
2022-10-21T05:13:20.932Z,98877.20
2022-10-21T05:14:22.951Z,98876.98
2022-10-21T05:15:26.255Z,98878.02
2022-10-21T05:16:27.896Z,98876.29
2022-10-21T05:17:29.514Z,98868.64
2022-10-21T05:18:31.874Z,98869.41
2022-10-21T05:19:33.521Z,98867.41
2022-10-21T05:20:35.154Z,98864.58
2022-10-21T05:22:43.460Z,98866.79
2022-10-21T05:23:45.155Z,98863.89
2022-10-21T05:24:46.789Z,98861.20
2022-10-21T05:25:51.645Z,98863.07
2022-10-21T05:26:53.317Z,98860.86
2022-10-21T05:27:54.949Z,98859.27
2022-10-21T05:28:58.099Z,98859.46
2022-10-21T05:29:59.990Z,98860.87
2022-10-21T05:31:01.634Z,98855.13
2022-10-21T05:32:03.473Z,98856.15
2022-10-21T05:33:05.152Z,98853.52
2022-10-21T05:34:06.824Z,98853.70
2022-10-21T05:35:08.679Z,98849.02
2022-10-21T05:36:10.337Z,98849.67
2022-10-21T05:37:11.977Z,98844.35
2022-10-21T05:38:13.605Z,98841.97
2022-10-21T05:39:15.746Z,98846.73
2022-10-21T05:40:18.485Z,98846.98
2022-10-21T05:41:20.209Z,98845.69
2022-10-21T05:42:21.851Z,98848.10
2022-10-21T05:43:24.410Z,98848.96
2022-10-21T05:44:26.105Z,98851.70
2022-10-21T05:45:28.157Z,98853.13
2022-10-21T05:46:29.856Z,98850.02
2022-10-21T05:47:31.508Z,98853.46
2022-10-21T05:48:33.272Z,98856.23
2022-10-21T05:49:35.076Z,98858.00
2022-10-21T05:50:36.742Z,98859.09
2022-10-21T05:51:38.406Z,98855.45
2022-10-21T05:52:40.664Z,98854.83
2022-10-21T05:53:42.677Z,98851.35
2022-10-21T05:54:44.327Z,98852.95
2022-10-21T05:55:45.977Z,98855.10
2022-10-21T05:56:48.193Z,98852.54
2022-10-21T05:58:51.597Z,98850.14
2022-10-21T05:59:53.650Z,98846.23
2022-10-21T06:00:55.681Z,98845.04
2022-10-21T06:01:57.439Z,98845.86
2022-10-21T06:02:59.230Z,98845.12
2022-10-21T06:04:00.951Z,98845.23
2022-10-21T06:05:03.072Z,98845.46
2022-10-21T06:06:07.591Z,98842.58
2022-10-21T06:07:09.362Z,98842.52
2022-10-21T06:08:11.015Z,98846.14
2022-10-21T06:09:12.895Z,98845.38
2022-10-21T06:10:16.612Z,98845.68
2022-10-21T06:11:20.044Z,98848.14
2022-10-21T06:12:21.832Z,98849.79
2022-10-21T06:13:23.468Z,98849.24
2022-10-21T06:14:26.336Z,98849.80
2022-10-21T06:15:27.998Z,98847.96
2022-10-21T06:16:29.663Z,98845.02
2022-10-21T06:17:31.528Z,98843.89
2022-10-21T06:18:33.461Z,98845.22
2022-10-21T06:19:35.120Z,98844.98
2022-10-21T06:20:37.745Z,98844.42
2022-10-21T06:21:39.394Z,98845.32
2022-10-21T06:22:41.015Z,98849.66
2022-10-21T06:23:42.726Z,98845.46
2022-10-21T06:24:44.528Z,98843.08
2022-10-21T06:26:07.035Z,98844.35
2022-10-21T06:27:08.718Z,98851.98
2022-10-21T06:28:10.375Z,98853.27
2022-10-21T06:29:12.129Z,98850.90
2022-10-21T06:30:13.753Z,98852.20
2022-10-21T06:31:18.749Z,98851.45
2022-10-21T06:32:20.359Z,98850.44
2022-10-21T06:33:26.168Z,98851.38
2022-10-21T06:34:29.028Z,98849.04
2022-10-21T06:35:30.676Z,98848.41
2022-10-21T06:36:32.451Z,98845.69
2022-10-21T06:37:34.301Z,98845.99
2022-10-21T06:38:37.217Z,98841.66
2022-10-21T06:39:38.866Z,98841.90
2022-10-21T06:40:40.820Z,98837.73
2022-10-21T06:41:42.467Z,98839.00
2022-10-21T06:42:50.867Z,98838.48
2022-10-21T06:43:52.526Z,98838.44
2022-10-21T06:44:56.630Z,98835.56
2022-10-21T06:46:03.472Z,98834.29
2022-10-21T06:47:05.189Z,98829.59
2022-10-21T06:48:07.051Z,98827.89
2022-10-21T06:49:08.672Z,98827.55
2022-10-21T06:50:10.419Z,98825.71
2022-10-21T06:51:19.394Z,98826.63
2022-10-21T06:52:21.770Z,98825.08
2022-10-21T06:53:23.413Z,98821.20
2022-10-21T06:54:25.120Z,98814.64
2022-10-21T06:55:26.873Z,98814.56
2022-10-21T06:56:28.950Z,98815.38
2022-10-21T06:57:30.597Z,98814.34
2022-10-21T06:58:32.649Z,98817.08
2022-10-21T06:59:34.336Z,98809.25
2022-10-21T07:00:37.296Z,98811.25
2022-10-21T07:01:59.079Z,98808.85
2022-10-21T07:03:00.884Z,98809.44
2022-10-21T07:04:06.003Z,98805.86
2022-10-21T07:05:08.783Z,98804.44
2022-10-21T07:06:10.446Z,98805.14
2022-10-21T07:07:12.880Z,98803.38
2022-10-21T07:08:14.558Z,98803.62
2022-10-21T07:09:16.855Z,98805.02
2022-10-21T07:10:18.702Z,98798.42
2022-10-21T07:11:20.509Z,98801.20
2022-10-21T07:12:22.169Z,98798.48
2022-10-21T07:13:25.945Z,98800.67
2022-10-21T07:14:28.134Z,98802.05
2022-10-21T07:15:29.914Z,98795.86
2022-10-21T07:16:36.687Z,98793.20
2022-10-21T07:17:38.992Z,98791.62
2022-10-21T07:18:42.649Z,98792.31
2022-10-21T07:19:44.670Z,98792.20
2022-10-21T07:20:46.294Z,98793.16
2022-10-21T07:21:48.007Z,98793.88
2022-10-21T07:22:49.649Z,98793.46
2022-10-21T07:23:54.035Z,98795.99
2022-10-21T07:24:57.134Z,98795.35
2022-10-21T07:25:59.487Z,98798.79
2022-10-21T07:27:01.954Z,98795.66
2022-10-21T07:28:03.601Z,98797.73
2022-10-21T07:29:06.067Z,98795.27
2022-10-21T07:30:08.305Z,98790.28
2022-10-21T07:31:09.987Z,98795.84
2022-10-21T07:32:11.728Z,98795.23
2022-10-21T07:33:13.649Z,98793.30
2022-10-21T07:34:15.549Z,98795.44
2022-10-21T07:35:17.306Z,98795.29
2022-10-21T07:36:26.625Z,98795.63
2022-10-21T07:37:28.303Z,98792.27
2022-10-21T07:38:29.982Z,98788.56
2022-10-21T07:39:31.876Z,98789.27
2022-10-21T07:40:39.166Z,98785.09
2022-10-21T07:41:49.363Z,98788.87
2022-10-21T07:42:51.312Z,98781.02
2022-10-21T07:43:53.913Z,98779.45
2022-10-21T07:45:01.110Z,98778.65
2022-10-21T07:46:06.025Z,98774.63
2022-10-21T07:47:08.762Z,98772.84
2022-10-21T07:48:10.440Z,98771.29
2022-10-21T07:49:13.812Z,98770.27
2022-10-21T07:50:16.798Z,98765.98
2022-10-21T07:51:23.708Z,98772.98
2022-10-21T07:52:27.749Z,98770.23
2022-10-21T07:53:29.407Z,98769.83
2022-10-21T07:54:31.063Z,98769.30
2022-10-21T07:55:32.777Z,98763.08
2022-10-21T07:56:42.240Z,98759.43
2022-10-21T07:57:44.841Z,98757.27
2022-10-21T07:58:49.550Z,98753.05
2022-10-21T07:59:51.155Z,98747.34
2022-10-21T08:00:52.784Z,98747.39
2022-10-21T08:01:54.661Z,98747.93
2022-10-21T08:02:57.105Z,98745.94
2022-10-21T08:03:58.805Z,98741.31
2022-10-21T08:05:00.476Z,98736.89
2022-10-21T08:06:03.152Z,98737.68
2022-10-21T08:07:04.815Z,98739.20
2022-10-21T08:08:06.501Z,98732.61
2022-10-21T08:09:08.582Z,98728.10
2022-10-21T08:10:10.669Z,98727.45
2022-10-21T08:11:19.814Z,98732.61
2022-10-21T08:12:21.501Z,98725.44
2022-10-21T08:13:23.654Z,98724.41
2022-10-21T08:14:25.340Z,98727.41
2022-10-21T08:15:27.009Z,98727.38
2022-10-21T08:16:28.685Z,98722.76
2022-10-21T08:17:30.360Z,98719.42
2022-10-21T08:18:33.224Z,98716.20
2022-10-21T08:19:34.879Z,98719.66
2022-10-21T08:20:44.483Z,98717.94
2022-10-21T08:21:46.171Z,98715.23
2022-10-21T08:22:47.806Z,98713.71
2022-10-21T08:23:49.531Z,98710.54
2022-10-21T08:24:51.329Z,98710.42
2022-10-21T08:25:56.066Z,98707.33
2022-10-21T08:26:57.809Z,98708.52
2022-10-21T08:27:59.430Z,98707.73
2022-10-21T08:29:03.966Z,98711.44
2022-10-21T08:30:06.178Z,98706.30
2022-10-21T08:31:11.369Z,98707.77
2022-10-21T08:32:13.046Z,98704.18
2022-10-21T08:33:15.876Z,98705.52
2022-10-21T08:34:18.107Z,98702.02
2022-10-21T08:35:19.775Z,98701.05
2022-10-21T08:36:25.105Z,98695.95
2022-10-21T08:37:26.857Z,98697.22
2022-10-21T08:38:28.497Z,98694.56
2022-10-21T08:39:30.294Z,98694.66
2022-10-21T08:40:41.752Z,98690.80
2022-10-21T08:41:53.307Z,98687.71
2022-10-21T08:42:55.094Z,98691.13
2022-10-21T08:43:59.008Z,98689.88
2022-10-21T08:45:07.232Z,98691.15
2022-10-21T08:46:18.982Z,98690.44
2022-10-21T08:47:45.717Z,98689.09
2022-10-21T08:49:03.948Z,98688.88
2022-10-21T08:50:13.706Z,98692.02
2022-10-21T08:51:33.212Z,98690.51
2022-10-21T08:52:50.175Z,98685.93
2022-10-21T08:53:58.431Z,98683.61
2022-10-21T08:55:06.632Z,98684.34
2022-10-21T08:56:18.697Z,98679.65
2022-10-21T08:57:22.162Z,98679.14
2022-10-21T08:58:24.925Z,98680.64
2022-10-21T08:59:26.976Z,98679.06
2022-10-21T09:00:45.724Z,98679.31
2022-10-21T09:02:11.977Z,98677.39
2022-10-21T09:03:58.599Z,98677.92
2022-10-21T09:05:09.309Z,98679.32
2022-10-21T09:06:24.840Z,98678.23
2022-10-21T09:07:54.302Z,98674.70
2022-10-21T09:09:04.285Z,98673.93
2022-10-21T09:10:39.622Z,98670.00
2022-10-21T09:12:00.239Z,98668.52
2022-10-21T09:13:13.114Z,98670.71
2022-10-21T09:15:00.076Z,98662.64
2022-10-21T09:16:19.411Z,98667.11
2022-10-21T09:17:50.306Z,98665.34
2022-10-21T09:19:12.106Z,98661.19
2022-10-21T09:20:33.955Z,98658.21
2022-10-21T09:22:10.881Z,98657.44
2022-10-21T09:23:53.707Z,98654.38
2022-10-21T09:25:19.505Z,98652.77
2022-10-21T09:26:38.779Z,98653.95
2022-10-21T09:27:55.037Z,98663.25
2022-10-21T09:29:23.072Z,98656.15
2022-10-21T09:30:25.604Z,98663.02
2022-10-21T09:31:29.346Z,98655.86
2022-10-21T09:32:40.522Z,98656.90
2022-10-21T09:33:45.998Z,98654.87
2022-10-21T09:35:06.623Z,98648.91
2022-10-21T09:36:19.767Z,98649.99
2022-10-21T09:37:38.393Z,98651.13
2022-10-21T09:39:09.146Z,98644.36
2022-10-21T09:40:26.837Z,98644.98
2022-10-21T09:41:41.520Z,98647.17
2022-10-21T09:42:48.357Z,98640.58
2022-10-21T09:43:50.846Z,98646.94
2022-10-21T09:44:53.440Z,98639.96
2022-10-21T09:45:56.911Z,98638.73
2022-10-21T09:46:58.564Z,98637.98
2022-10-21T09:48:06.453Z,98635.27
2022-10-21T09:50:02.106Z,98629.42
2022-10-21T09:50:58.328Z,98628.33
2022-10-21T09:52:05.621Z,98625.94
2022-10-21T09:53:26.658Z,98628.21
2022-10-21T09:54:35.362Z,98623.34
2022-10-21T09:55:39.838Z,98621.85
2022-10-21T09:56:50.086Z,98623.33
2022-10-21T09:57:58.207Z,98622.96
2022-10-21T09:59:12.333Z,98616.46
2022-10-21T10:00:14.500Z,98617.05
2022-10-21T10:01:21.427Z,98618.98
2022-10-21T10:02:36.024Z,98614.80
2022-10-21T10:03:45.684Z,98610.75
2022-10-21T10:04:47.367Z,98609.79
2022-10-21T10:05:49.390Z,98606.73
2022-10-21T10:06:52.625Z,98607.59
2022-10-21T10:07:54.281Z,98605.35
2022-10-21T10:09:08.367Z,98607.08
2022-10-21T10:10:33.372Z,98599.44
2022-10-21T10:11:50.005Z,98595.20
2022-10-21T10:12:59.571Z,98591.76
2022-10-21T10:14:25.904Z,98589.75
2022-10-21T10:15:36.618Z,98592.34
2022-10-21T10:16:38.328Z,98593.16
2022-10-21T10:17:40.202Z,98593.52
2022-10-21T10:18:43.943Z,98592.34
2022-10-21T10:20:05.752Z,98597.20
2022-10-21T10:21:15.169Z,98597.98
2022-10-21T10:22:17.101Z,98598.98
2022-10-21T10:23:19.441Z,98592.09
2022-10-21T10:24:22.107Z,98590.70
2022-10-21T10:25:28.949Z,98587.16
2022-10-21T10:26:38.384Z,98585.45
2022-10-21T10:27:53.839Z,98581.74
2022-10-21T10:29:02.837Z,98578.73
2022-10-21T10:30:06.270Z,98576.40
2022-10-21T10:31:08.470Z,98575.23
2022-10-21T10:32:16.367Z,98575.45
2022-10-21T10:33:24.896Z,98576.31
2022-10-21T10:34:37.061Z,98577.63
2022-10-21T10:35:47.532Z,98579.77
2022-10-21T10:36:59.073Z,98576.61
2022-10-21T10:38:02.641Z,98575.63
2022-10-21T10:39:18.936Z,98571.54
2022-10-21T10:40:26.019Z,98568.64
2022-10-21T10:41:36.897Z,98567.52
2022-10-21T10:42:46.560Z,98568.91
2022-10-21T10:43:53.326Z,98573.45
2022-10-21T10:45:01.757Z,98572.43
2022-10-21T10:46:10.255Z,98572.27
2022-10-21T10:47:25.570Z,98569.73
2022-10-21T10:48:50.649Z,98569.89
2022-10-21T10:49:52.575Z,98570.48
2022-10-21T10:50:54.334Z,98567.20
2022-10-21T10:52:28.416Z,98565.62
2022-10-21T10:53:35.608Z,98565.20
2022-10-21T10:54:42.394Z,98563.23
2022-10-21T10:57:00.376Z,98556.00
2022-10-21T10:58:12.691Z,98551.63
2022-10-21T10:59:34.554Z,98549.69
2022-10-21T11:00:44.935Z,98548.92
2022-10-21T11:02:00.439Z,98552.00
2022-10-21T11:03:08.104Z,98545.35
2022-10-21T11:04:32.149Z,98547.20
2022-10-21T11:05:46.490Z,98545.95
2022-10-21T11:06:56.054Z,98545.09
2022-10-21T11:08:04.551Z,98538.92
2022-10-21T11:09:08.357Z,98539.99
2022-10-21T11:10:42.346Z,98543.11
2022-10-21T11:11:48.402Z,98544.09
2022-10-21T11:12:50.349Z,98544.67
2022-10-21T11:13:53.487Z,98543.63
2022-10-21T11:14:58.536Z,98537.36
2022-10-21T11:16:26.458Z,98537.27
2022-10-21T11:17:41.094Z,98540.27
2022-10-21T11:19:11.669Z,98537.90
2022-10-21T11:20:32.077Z,98532.29
2022-10-21T11:21:53.105Z,98534.51
2022-10-21T11:23:16.073Z,98530.34
2022-10-21T11:24:42.551Z,98530.56
2022-10-21T11:25:55.680Z,98526.46
2022-10-21T11:27:29.307Z,98528.10
2022-10-21T11:28:51.932Z,98525.58
2022-10-21T11:30:08.811Z,98519.51
2022-10-21T11:31:13.143Z,98521.65
2022-10-21T11:32:36.106Z,98520.55
2022-10-21T11:33:52.581Z,98515.65
2022-10-21T11:35:01.229Z,98513.44
2022-10-21T11:36:15.538Z,98505.74
2022-10-21T11:37:50.883Z,98504.98
2022-10-21T11:39:29.397Z,98497.50
2022-10-21T11:40:41.803Z,98488.33
2022-10-21T11:42:00.367Z,98487.70
2022-10-21T11:43:22.187Z,98482.02
2022-10-21T11:44:52.178Z,98485.33
2022-10-21T11:46:30.822Z,98478.98
2022-10-21T11:47:46.007Z,98477.60
2022-10-21T11:49:05.934Z,98470.23
2022-10-21T11:50:42.117Z,98468.30
2022-10-21T11:52:02.169Z,98467.05
2022-10-21T11:53:40.123Z,98469.36
2022-10-21T11:55:02.234Z,98472.67
2022-10-21T11:56:39.972Z,98475.48
2022-10-21T11:57:47.755Z,98478.41
2022-10-21T11:59:20.615Z,98479.25
2022-10-21T12:00:26.435Z,98481.91
2022-10-21T12:01:37.654Z,98487.02
2022-10-21T12:02:54.233Z,98490.23
2022-10-21T12:04:21.540Z,98485.97
2022-10-21T12:05:34.242Z,98493.27
2022-10-21T12:06:53.446Z,98496.34
2022-10-21T12:08:09.304Z,98496.08
2022-10-21T12:09:23.421Z,98499.94
2022-10-21T12:10:33.388Z,98498.58
2022-10-21T12:11:43.766Z,98498.39
2022-10-21T12:12:49.425Z,98500.95
2022-10-21T12:14:06.761Z,98495.73
2022-10-21T12:15:21.785Z,98492.11
2022-10-21T12:16:29.634Z,98495.75
2022-10-21T12:17:34.805Z,98497.16
2022-10-21T12:18:47.503Z,98496.25
2022-10-21T12:19:59.372Z,98494.21
2022-10-21T12:21:01.164Z,98498.71
2022-10-21T12:22:03.942Z,98496.89
2022-10-21T12:23:07.814Z,98500.70
2022-10-21T12:24:27.278Z,98496.68
2022-10-21T12:25:42.421Z,98493.91
2022-10-21T12:26:56.261Z,98492.15
2022-10-21T12:28:26.504Z,98494.43
2022-10-21T12:29:58.152Z,98495.03
2022-10-21T12:31:27.530Z,98484.98
2022-10-21T12:33:06.556Z,98478.21
2022-10-21T12:34:11.375Z,98474.84
2022-10-21T12:35:15.811Z,98468.81
2022-10-21T12:36:39.044Z,98469.71
2022-10-21T12:37:52.596Z,98472.72
2022-10-21T12:38:56.814Z,98468.11
2022-10-21T12:40:35.881Z,98468.89
2022-10-21T12:41:39.331Z,98464.59
2022-10-21T12:42:57.759Z,98463.57
2022-10-21T12:44:02.151Z,98461.58
2022-10-21T12:45:04.065Z,98462.99
2022-10-21T12:46:11.648Z,98464.50
2022-10-21T12:47:34.979Z,98470.02
2022-10-21T12:48:43.469Z,98467.23
2022-10-21T12:49:45.737Z,98465.34
2022-10-21T12:50:59.159Z,98462.45
2022-10-21T12:52:21.993Z,98462.42
2022-10-21T12:53:34.464Z,98456.98
2022-10-21T12:54:58.550Z,98453.50
2022-10-21T12:56:01.904Z,98447.60
2022-10-21T12:57:11.978Z,98451.02
2022-10-21T12:58:32.994Z,98454.17
2022-10-21T12:59:41.273Z,98456.98
2022-10-21T13:00:53.096Z,98458.88
2022-10-21T13:02:06.521Z,98454.83
2022-10-21T13:03:19.334Z,98449.16
2022-10-21T13:04:33.325Z,98446.45
2022-10-21T13:05:37.668Z,98441.45
2022-10-21T13:06:55.167Z,98439.90
2022-10-21T13:08:28.330Z,98435.25
2022-10-21T13:09:53.953Z,98426.21
2022-10-21T13:11:07.359Z,98420.45
2022-10-21T13:12:08.889Z,98425.35
2022-10-21T13:13:36.695Z,98422.52
2022-10-21T13:15:08.102Z,98424.84
2022-10-21T13:16:15.882Z,98426.11
2022-10-21T13:17:23.262Z,98426.68
2022-10-21T13:19:03.629Z,98426.63
2022-10-21T13:20:20.165Z,98430.91
2022-10-21T13:21:29.387Z,98430.13
2022-10-21T13:22:37.700Z,98429.20